sensor_id;sensor_type;location;lat;lon;timestamp;P1;durP1;ratioP1;P2;durP2;ratioP2
83807;SDS011;73824;40.292;17.998;2024-01-30T00:02:14;20.73;;;6.32;;
83807;SDS011;73824;40.292;17.998;2024-01-30T00:04:40;17.60;;;6.30;;
83807;SDS011;73824;40.292;17.998;2024-01-30T00:07:05;17.67;;;6.27;;
83807;SDS011;73824;40.292;17.998;2024-01-30T00:09:31;15.80;;;5.93;;
83807;SDS011;73824;40.292;17.998;2024-01-30T00:11:56;15.82;;;6.22;;
83807;SDS011;73824;40.292;17.998;2024-01-30T00:14:22;18.20;;;6.37;;
83807;SDS011;73824;40.292;17.998;2024-01-30T00:16:48;18.73;;;6.40;;
83807;SDS011;73824;40.292;17.998;2024-01-30T00:19:13;16.57;;;6.33;;
83807;SDS011;73824;40.292;17.998;2024-01-30T00:21:39;21.00;;;7.47;;
83807;SDS011;73824;40.292;17.998;2024-01-30T00:24:04;17.05;;;6.38;;
83807;SDS011;73824;40.292;17.998;2024-01-30T00:26:30;15.50;;;5.60;;
83807;SDS011;73824;40.292;17.998;2024-01-30T00:28:55;17.47;;;6.17;;
83807;SDS011;73824;40.292;17.998;2024-01-30T00:31:21;19.13;;;6.68;;
83807;SDS011;73824;40.292;17.998;2024-01-30T00:33:46;18.90;;;6.93;;
83807;SDS011;73824;40.292;17.998;2024-01-30T00:36:12;19.27;;;6.17;;
83807;SDS011;73824;40.292;17.998;2024-01-30T00:38:37;15.83;;;6.30;;
83807;SDS011;73824;40.292;17.998;2024-01-30T00:41:03;18.20;;;6.38;;
83807;SDS011;73824;40.292;17.998;2024-01-30T00:43:29;16.85;;;6.15;;
83807;SDS011;73824;40.292;17.998;2024-01-30T00:45:56;15.60;;;5.50;;
83807;SDS011;73824;40.292;17.998;2024-01-30T00:48:23;15.60;;;5.60;;
83807;SDS011;73824;40.292;17.998;2024-01-30T00:50:48;13.95;;;5.07;;
83807;SDS011;73824;40.292;17.998;2024-01-30T00:53:14;13.47;;;4.90;;
83807;SDS011;73824;40.292;17.998;2024-01-30T00:55:39;16.30;;;5.20;;
83807;SDS011;73824;40.292;17.998;2024-01-30T00:58:05;10.50;;;3.83;;
83807;SDS011;73824;40.292;17.998;2024-01-30T01:00:30;15.05;;;4.90;;
83807;SDS011;73824;40.292;17.998;2024-01-30T01:02:57;13.50;;;4.83;;
83807;SDS011;73824;40.292;17.998;2024-01-30T01:05:26;12.38;;;4.43;;
83807;SDS011;73824;40.292;17.998;2024-01-30T01:07:51;11.93;;;4.10;;
83807;SDS011;73824;40.292;17.998;2024-01-30T01:10:17;11.73;;;3.43;;
83807;SDS011;73824;40.292;17.998;2024-01-30T01:12:43;12.00;;;3.55;;
83807;SDS011;73824;40.292;17.998;2024-01-30T01:15:09;11.98;;;3.95;;
83807;SDS011;73824;40.292;17.998;2024-01-30T01:17:35;12.93;;;4.07;;
83807;SDS011;73824;40.292;17.998;2024-01-30T01:20:02;12.63;;;3.67;;
83807;SDS011;73824;40.292;17.998;2024-01-30T01:22:28;15.35;;;4.13;;
83807;SDS011;73824;40.292;17.998;2024-01-30T01:24:55;11.27;;;3.78;;
83807;SDS011;73824;40.292;17.998;2024-01-30T01:27:20;13.00;;;4.00;;
83807;SDS011;73824;40.292;17.998;2024-01-30T01:29:46;10.63;;;3.63;;
83807;SDS011;73824;40.292;17.998;2024-01-30T01:32:11;12.43;;;3.60;;
83807;SDS011;73824;40.292;17.998;2024-01-30T01:34:37;9.13;;;3.00;;
83807;SDS011;73824;40.292;17.998;2024-01-30T01:37:02;9.37;;;2.87;;
83807;SDS011;73824;40.292;17.998;2024-01-30T01:39:28;9.85;;;3.00;;
83807;SDS011;73824;40.292;17.998;2024-01-30T01:41:53;8.63;;;3.00;;
83807;SDS011;73824;40.292;17.998;2024-01-30T01:44:19;11.43;;;3.00;;
83807;SDS011;73824;40.292;17.998;2024-01-30T01:46:44;10.30;;;3.00;;
83807;SDS011;73824;40.292;17.998;2024-01-30T01:49:10;10.53;;;3.40;;
83807;SDS011;73824;40.292;17.998;2024-01-30T01:51:36;13.13;;;3.67;;
83807;SDS011;73824;40.292;17.998;2024-01-30T01:54:05;10.88;;;3.38;;
83807;SDS011;73824;40.292;17.998;2024-01-30T01:56:31;10.05;;;3.47;;
83807;SDS011;73824;40.292;17.998;2024-01-30T01:58:59;11.40;;;3.67;;
83807;SDS011;73824;40.292;17.998;2024-01-30T02:01:30;12.63;;;3.55;;
83807;SDS011;73824;40.292;17.998;2024-01-30T02:03:58;12.23;;;3.90;;
83807;SDS011;73824;40.292;17.998;2024-01-30T02:06:24;11.70;;;3.70;;
83807;SDS011;73824;40.292;17.998;2024-01-30T02:08:49;14.90;;;5.03;;
83807;SDS011;73824;40.292;17.998;2024-01-30T02:11:15;12.83;;;3.77;;
83807;SDS011;73824;40.292;17.998;2024-01-30T02:13:41;17.10;;;4.45;;
83807;SDS011;73824;40.292;17.998;2024-01-30T02:16:07;16.20;;;4.43;;
83807;SDS011;73824;40.292;17.998;2024-01-30T02:18:33;11.30;;;3.53;;
83807;SDS011;73824;40.292;17.998;2024-01-30T02:20:59;10.37;;;3.53;;
83807;SDS011;73824;40.292;17.998;2024-01-30T02:23:29;10.48;;;3.75;;
83807;SDS011;73824;40.292;17.998;2024-01-30T02:25:55;10.15;;;2.92;;
83807;SDS011;73824;40.292;17.998;2024-01-30T02:28:21;9.53;;;3.10;;
83807;SDS011;73824;40.292;17.998;2024-01-30T02:30:46;11.97;;;3.60;;
83807;SDS011;73824;40.292;17.998;2024-01-30T02:33:12;11.20;;;3.65;;
83807;SDS011;73824;40.292;17.998;2024-01-30T02:35:38;12.87;;;3.30;;
83807;SDS011;73824;40.292;17.998;2024-01-30T02:38:04;11.27;;;4.05;;
83807;SDS011;73824;40.292;17.998;2024-01-30T02:40:30;12.98;;;3.67;;
83807;SDS011;73824;40.292;17.998;2024-01-30T02:42:59;9.63;;;3.10;;
83807;SDS011;73824;40.292;17.998;2024-01-30T02:45:25;10.85;;;3.40;;
83807;SDS011;73824;40.292;17.998;2024-01-30T02:47:51;12.48;;;3.75;;
83807;SDS011;73824;40.292;17.998;2024-01-30T02:50:16;8.93;;;3.10;;
83807;SDS011;73824;40.292;17.998;2024-01-30T02:52:42;12.10;;;3.70;;
83807;SDS011;73824;40.292;17.998;2024-01-30T02:55:20;8.77;;;2.87;;
83807;SDS011;73824;40.292;17.998;2024-01-30T02:57:46;14.35;;;3.88;;
83807;SDS011;73824;40.292;17.998;2024-01-30T03:00:11;13.47;;;3.90;;
83807;SDS011;73824;40.292;17.998;2024-01-30T03:02:37;12.57;;;3.53;;
83807;SDS011;73824;40.292;17.998;2024-01-30T03:05:04;12.80;;;3.83;;
83807;SDS011;73824;40.292;17.998;2024-01-30T03:07:30;11.93;;;3.10;;
83807;SDS011;73824;40.292;17.998;2024-01-30T03:09:56;10.73;;;3.33;;
83807;SDS011;73824;40.292;17.998;2024-01-30T03:12:22;11.10;;;3.03;;
83807;SDS011;73824;40.292;17.998;2024-01-30T03:14:48;11.47;;;3.63;;
83807;SDS011;73824;40.292;17.998;2024-01-30T03:17:14;13.73;;;4.00;;
83807;SDS011;73824;40.292;17.998;2024-01-30T03:19:40;13.57;;;3.85;;
83807;SDS011;73824;40.292;17.998;2024-01-30T03:22:05;12.87;;;4.10;;
83807;SDS011;73824;40.292;17.998;2024-01-30T03:24:31;12.50;;;3.47;;
83807;SDS011;73824;40.292;17.998;2024-01-30T03:26:56;11.10;;;3.53;;
83807;SDS011;73824;40.292;17.998;2024-01-30T03:29:22;12.37;;;3.40;;
83807;SDS011;73824;40.292;17.998;2024-01-30T03:31:47;11.30;;;3.43;;
83807;SDS011;73824;40.292;17.998;2024-01-30T03:34:13;11.50;;;2.90;;
83807;SDS011;73824;40.292;17.998;2024-01-30T03:36:38;10.07;;;3.50;;
83807;SDS011;73824;40.292;17.998;2024-01-30T03:39:04;10.23;;;3.50;;
83807;SDS011;73824;40.292;17.998;2024-01-30T03:41:29;16.97;;;5.10;;
83807;SDS011;73824;40.292;17.998;2024-01-30T03:43:55;27.48;;;8.73;;
83807;SDS011;73824;40.292;17.998;2024-01-30T03:46:20;25.83;;;8.63;;
83807;SDS011;73824;40.292;17.998;2024-01-30T03:48:46;16.17;;;5.33;;
83807;SDS011;73824;40.292;17.998;2024-01-30T03:51:11;17.33;;;5.32;;
83807;SDS011;73824;40.292;17.998;2024-01-30T03:53:40;17.70;;;5.15;;
83807;SDS011;73824;40.292;17.998;2024-01-30T03:56:06;19.50;;;5.57;;
83807;SDS011;73824;40.292;17.998;2024-01-30T03:58:32;23.80;;;10.65;;
83807;SDS011;73824;40.292;17.998;2024-01-30T04:00:57;16.80;;;7.40;;
83807;SDS011;73824;40.292;17.998;2024-01-30T04:03:23;13.53;;;5.10;;
83807;SDS011;73824;40.292;17.998;2024-01-30T04:05:48;12.05;;;4.78;;
83807;SDS011;73824;40.292;17.998;2024-01-30T04:08:14;12.77;;;4.23;;
83807;SDS011;73824;40.292;17.998;2024-01-30T04:10:39;11.63;;;3.90;;
83807;SDS011;73824;40.292;17.998;2024-01-30T04:13:05;10.97;;;3.90;;
83807;SDS011;73824;40.292;17.998;2024-01-30T04:15:30;12.23;;;4.25;;
83807;SDS011;73824;40.292;17.998;2024-01-30T04:17:59;10.20;;;4.20;;
83807;SDS011;73824;40.292;17.998;2024-01-30T04:20:24;13.15;;;4.85;;
83807;SDS011;73824;40.292;17.998;2024-01-30T04:22:50;16.30;;;5.20;;
83807;SDS011;73824;40.292;17.998;2024-01-30T04:25:16;12.68;;;5.15;;
83807;SDS011;73824;40.292;17.998;2024-01-30T04:27:41;14.23;;;5.47;;
83807;SDS011;73824;40.292;17.998;2024-01-30T04:30:07;15.10;;;4.73;;
83807;SDS011;73824;40.292;17.998;2024-01-30T04:32:33;14.82;;;5.32;;
83807;SDS011;73824;40.292;17.998;2024-01-30T04:35:00;20.90;;;6.18;;
83807;SDS011;73824;40.292;17.998;2024-01-30T04:37:25;14.27;;;5.47;;
83807;SDS011;73824;40.292;17.998;2024-01-30T04:39:51;11.63;;;4.45;;
83807;SDS011;73824;40.292;17.998;2024-01-30T04:42:17;13.27;;;5.07;;
83807;SDS011;73824;40.292;17.998;2024-01-30T04:44:42;9.70;;;3.10;;
83807;SDS011;73824;40.292;17.998;2024-01-30T04:47:08;9.20;;;3.13;;
83807;SDS011;73824;40.292;17.998;2024-01-30T04:49:39;12.45;;;3.58;;
83807;SDS011;73824;40.292;17.998;2024-01-30T04:52:05;9.13;;;2.60;;
83807;SDS011;73824;40.292;17.998;2024-01-30T04:54:31;9.52;;;1.98;;
83807;SDS011;73824;40.292;17.998;2024-01-30T04:56:57;7.35;;;2.03;;
83807;SDS011;73824;40.292;17.998;2024-01-30T04:59:23;7.23;;;1.83;;
83807;SDS011;73824;40.292;17.998;2024-01-30T05:01:49;7.38;;;1.95;;
83807;SDS011;73824;40.292;17.998;2024-01-30T05:04:14;7.03;;;1.67;;
83807;SDS011;73824;40.292;17.998;2024-01-30T05:06:40;9.50;;;2.00;;
83807;SDS011;73824;40.292;17.998;2024-01-30T05:09:05;9.32;;;2.22;;
83807;SDS011;73824;40.292;17.998;2024-01-30T05:11:31;9.47;;;2.00;;
83807;SDS011;73824;40.292;17.998;2024-01-30T05:13:56;9.53;;;2.03;;
83807;SDS011;73824;40.292;17.998;2024-01-30T05:16:22;6.43;;;1.85;;
83807;SDS011;73824;40.292;17.998;2024-01-30T05:18:47;7.50;;;1.90;;
83807;SDS011;73824;40.292;17.998;2024-01-30T05:21:13;9.43;;;2.00;;
83807;SDS011;73824;40.292;17.998;2024-01-30T05:23:39;9.75;;;2.22;;
83807;SDS011;73824;40.292;17.998;2024-01-30T05:26:06;10.40;;;2.90;;
83807;SDS011;73824;40.292;17.998;2024-01-30T05:28:33;7.63;;;2.55;;
83807;SDS011;73824;40.292;17.998;2024-01-30T05:30:58;10.60;;;4.37;;
83807;SDS011;73824;40.292;17.998;2024-01-30T05:33:24;21.63;;;8.20;;
83807;SDS011;73824;40.292;17.998;2024-01-30T05:35:49;12.85;;;4.05;;
83807;SDS011;73824;40.292;17.998;2024-01-30T05:38:15;9.93;;;2.57;;
83807;SDS011;73824;40.292;17.998;2024-01-30T05:40:41;9.30;;;2.10;;
83807;SDS011;73824;40.292;17.998;2024-01-30T05:43:07;9.40;;;2.60;;
83807;SDS011;73824;40.292;17.998;2024-01-30T05:45:33;9.13;;;3.00;;
83807;SDS011;73824;40.292;17.998;2024-01-30T05:48:00;8.67;;;3.00;;
83807;SDS011;73824;40.292;17.998;2024-01-30T05:50:26;9.32;;;3.38;;
83807;SDS011;73824;40.292;17.998;2024-01-30T05:52:52;11.07;;;3.65;;
83807;SDS011;73824;40.292;17.998;2024-01-30T05:55:17;11.52;;;4.07;;
83807;SDS011;73824;40.292;17.998;2024-01-30T05:57:43;11.80;;;4.67;;
83807;SDS011;73824;40.292;17.998;2024-01-30T06:00:08;16.83;;;5.70;;
83807;SDS011;73824;40.292;17.998;2024-01-30T06:02:34;14.02;;;5.80;;
83807;SDS011;73824;40.292;17.998;2024-01-30T06:05:00;15.37;;;5.67;;
83807;SDS011;73824;40.292;17.998;2024-01-30T06:07:25;15.37;;;5.80;;
83807;SDS011;73824;40.292;17.998;2024-01-30T06:09:51;15.45;;;5.30;;
83807;SDS011;73824;40.292;17.998;2024-01-30T06:12:16;16.02;;;5.80;;
83807;SDS011;73824;40.292;17.998;2024-01-30T06:14:42;15.37;;;6.00;;
83807;SDS011;73824;40.292;17.998;2024-01-30T06:17:08;14.93;;;5.50;;
83807;SDS011;73824;40.292;17.998;2024-01-30T06:19:33;15.13;;;5.33;;
83807;SDS011;73824;40.292;17.998;2024-01-30T06:21:59;13.48;;;5.75;;
83807;SDS011;73824;40.292;17.998;2024-01-30T06:24:25;11.50;;;4.40;;
83807;SDS011;73824;40.292;17.998;2024-01-30T06:26:51;18.13;;;5.80;;
83807;SDS011;73824;40.292;17.998;2024-01-30T06:29:16;14.37;;;5.17;;
83807;SDS011;73824;40.292;17.998;2024-01-30T06:31:42;12.18;;;3.60;;
83807;SDS011;73824;40.292;17.998;2024-01-30T06:34:08;12.83;;;4.07;;
83807;SDS011;73824;40.292;17.998;2024-01-30T06:36:34;11.27;;;4.03;;
83807;SDS011;73824;40.292;17.998;2024-01-30T06:39:00;14.10;;;5.30;;
83807;SDS011;73824;40.292;17.998;2024-01-30T06:41:26;16.55;;;6.45;;
83807;SDS011;73824;40.292;17.998;2024-01-30T06:43:52;16.70;;;5.90;;
83807;SDS011;73824;40.292;17.998;2024-01-30T06:46:17;19.65;;;6.35;;
83807;SDS011;73824;40.292;17.998;2024-01-30T06:48:43;15.80;;;7.07;;
83807;SDS011;73824;40.292;17.998;2024-01-30T06:51:10;34.25;;;11.73;;
83807;SDS011;73824;40.292;17.998;2024-01-30T06:53:38;30.45;;;11.48;;
83807;SDS011;73824;40.292;17.998;2024-01-30T06:56:04;29.80;;;11.30;;
83807;SDS011;73824;40.292;17.998;2024-01-30T06:58:30;25.40;;;9.73;;
83807;SDS011;73824;40.292;17.998;2024-01-30T07:00:55;23.95;;;10.02;;
83807;SDS011;73824;40.292;17.998;2024-01-30T07:03:21;29.87;;;10.90;;
83807;SDS011;73824;40.292;17.998;2024-01-30T07:05:47;20.85;;;9.10;;
83807;SDS011;73824;40.292;17.998;2024-01-30T07:08:12;17.40;;;7.68;;
83807;SDS011;73824;40.292;17.998;2024-01-30T07:10:38;21.10;;;8.63;;
83807;SDS011;73824;40.292;17.998;2024-01-30T07:13:03;18.40;;;7.05;;
83807;SDS011;73824;40.292;17.998;2024-01-30T07:15:30;15.97;;;7.33;;
83807;SDS011;73824;40.292;17.998;2024-01-30T07:17:56;14.75;;;6.90;;
83807;SDS011;73824;40.292;17.998;2024-01-30T07:20:21;19.17;;;7.30;;
83807;SDS011;73824;40.292;17.998;2024-01-30T07:22:47;16.53;;;7.77;;
83807;SDS011;73824;40.292;17.998;2024-01-30T07:25:13;15.38;;;6.90;;
83807;SDS011;73824;40.292;17.998;2024-01-30T07:27:38;18.97;;;8.70;;
83807;SDS011;73824;40.292;17.998;2024-01-30T07:30:04;18.90;;;9.23;;
83807;SDS011;73824;40.292;17.998;2024-01-30T07:32:30;17.52;;;8.95;;
83807;SDS011;73824;40.292;17.998;2024-01-30T07:34:56;19.33;;;9.73;;
83807;SDS011;73824;40.292;17.998;2024-01-30T07:37:22;17.20;;;10.32;;
83807;SDS011;73824;40.292;17.998;2024-01-30T07:39:47;18.77;;;10.43;;
83807;SDS011;73824;40.292;17.998;2024-01-30T07:42:13;16.43;;;10.30;;
83807;SDS011;73824;40.292;17.998;2024-01-30T07:44:38;18.35;;;10.30;;
83807;SDS011;73824;40.292;17.998;2024-01-30T07:47:04;14.17;;;9.57;;
83807;SDS011;73824;40.292;17.998;2024-01-30T07:49:30;14.40;;;9.38;;
83807;SDS011;73824;40.292;17.998;2024-01-30T07:52:01;15.70;;;9.27;;
83807;SDS011;73824;40.292;17.998;2024-01-30T07:54:30;17.02;;;9.63;;
83807;SDS011;73824;40.292;17.998;2024-01-30T07:56:58;17.73;;;11.07;;
83807;SDS011;73824;40.292;17.998;2024-01-30T07:59:24;21.42;;;13.65;;
83807;SDS011;73824;40.292;17.998;2024-01-30T08:01:50;24.17;;;15.80;;
83807;SDS011;73824;40.292;17.998;2024-01-30T08:04:16;26.02;;;17.42;;
83807;SDS011;73824;40.292;17.998;2024-01-30T08:06:42;22.33;;;15.07;;
83807;SDS011;73824;40.292;17.998;2024-01-30T08:09:08;21.50;;;14.57;;
83807;SDS011;73824;40.292;17.998;2024-01-30T08:11:33;22.38;;;16.42;;
83807;SDS011;73824;40.292;17.998;2024-01-30T08:13:59;25.70;;;17.57;;
83807;SDS011;73824;40.292;17.998;2024-01-30T08:16:24;17.13;;;13.13;;
83807;SDS011;73824;40.292;17.998;2024-01-30T08:18:50;21.33;;;15.20;;
83807;SDS011;73824;40.292;17.998;2024-01-30T08:21:15;18.37;;;13.70;;
83807;SDS011;73824;40.292;17.998;2024-01-30T08:23:41;15.17;;;11.30;;
83807;SDS011;73824;40.292;17.998;2024-01-30T08:26:07;13.73;;;9.65;;
83807;SDS011;73824;40.292;17.998;2024-01-30T08:28:33;13.47;;;8.90;;
83807;SDS011;73824;40.292;17.998;2024-01-30T08:30:58;9.02;;;4.35;;
83807;SDS011;73824;40.292;17.998;2024-01-30T08:33:24;9.57;;;5.87;;
83807;SDS011;73824;40.292;17.998;2024-01-30T08:35:49;8.30;;;3.90;;
83807;SDS011;73824;40.292;17.998;2024-01-30T08:38:15;8.43;;;4.30;;
83807;SDS011;73824;40.292;17.998;2024-01-30T08:40:40;8.30;;;3.50;;
83807;SDS011;73824;40.292;17.998;2024-01-30T08:43:06;9.33;;;4.20;;
83807;SDS011;73824;40.292;17.998;2024-01-30T08:45:33;9.07;;;4.35;;
83807;SDS011;73824;40.292;17.998;2024-01-30T08:47:58;10.20;;;4.30;;
83807;SDS011;73824;40.292;17.998;2024-01-30T08:50:24;6.82;;;2.80;;
83807;SDS011;73824;40.292;17.998;2024-01-30T08:52:49;8.85;;;4.28;;
83807;SDS011;73824;40.292;17.998;2024-01-30T08:55:15;9.30;;;3.53;;
83807;SDS011;73824;40.292;17.998;2024-01-30T08:57:40;7.97;;;3.37;;
83807;SDS011;73824;40.292;17.998;2024-01-30T09:00:06;10.35;;;4.78;;
83807;SDS011;73824;40.292;17.998;2024-01-30T09:02:34;8.93;;;4.43;;
83807;SDS011;73824;40.292;17.998;2024-01-30T09:05:00;11.68;;;5.80;;
83807;SDS011;73824;40.292;17.998;2024-01-30T09:07:25;9.33;;;4.80;;
83807;SDS011;73824;40.292;17.998;2024-01-30T09:09:50;8.98;;;4.00;;
83807;SDS011;73824;40.292;17.998;2024-01-30T09:12:16;11.60;;;5.60;;
83807;SDS011;73824;40.292;17.998;2024-01-30T09:14:42;10.03;;;5.07;;
83807;SDS011;73824;40.292;17.998;2024-01-30T09:17:07;8.10;;;4.13;;
83807;SDS011;73824;40.292;17.998;2024-01-30T09:19:33;11.23;;;4.47;;
83807;SDS011;73824;40.292;17.998;2024-01-30T09:21:59;7.43;;;3.65;;
83807;SDS011;73824;40.292;17.998;2024-01-30T09:24:25;9.83;;;3.93;;
83807;SDS011;73824;40.292;17.998;2024-01-30T09:26:51;9.35;;;4.22;;
83807;SDS011;73824;40.292;17.998;2024-01-30T09:29:17;7.40;;;3.47;;
83807;SDS011;73824;40.292;17.998;2024-01-30T09:31:43;9.48;;;3.60;;
83807;SDS011;73824;40.292;17.998;2024-01-30T09:34:10;11.10;;;3.60;;
83807;SDS011;73824;40.292;17.998;2024-01-30T09:36:35;6.88;;;3.20;;
83807;SDS011;73824;40.292;17.998;2024-01-30T09:39:01;7.67;;;3.53;;
83807;SDS011;73824;40.292;17.998;2024-01-30T09:41:27;6.20;;;2.72;;
83807;SDS011;73824;40.292;17.998;2024-01-30T09:43:52;9.73;;;4.10;;
83807;SDS011;73824;40.292;17.998;2024-01-30T09:46:22;9.43;;;3.85;;
83807;SDS011;73824;40.292;17.998;2024-01-30T09:48:52;11.35;;;4.18;;
83807;SDS011;73824;40.292;17.998;2024-01-30T09:51:20;8.15;;;4.10;;
83807;SDS011;73824;40.292;17.998;2024-01-30T09:53:47;11.20;;;5.28;;
83807;SDS011;73824;40.292;17.998;2024-01-30T09:56:13;8.40;;;4.07;;
83807;SDS011;73824;40.292;17.998;2024-01-30T09:58:39;7.85;;;3.42;;
83807;SDS011;73824;40.292;17.998;2024-01-30T10:01:05;10.35;;;3.60;;
83807;SDS011;73824;40.292;17.998;2024-01-30T10:03:31;8.57;;;3.60;;
83807;SDS011;73824;40.292;17.998;2024-01-30T10:05:57;11.35;;;3.45;;
83807;SDS011;73824;40.292;17.998;2024-01-30T10:08:23;8.40;;;2.42;;
83807;SDS011;73824;40.292;17.998;2024-01-30T10:10:48;7.88;;;2.70;;
83807;SDS011;73824;40.292;17.998;2024-01-30T10:13:15;9.30;;;3.42;;
83807;SDS011;73824;40.292;17.998;2024-01-30T10:15:41;9.97;;;2.97;;
83807;SDS011;73824;40.292;17.998;2024-01-30T10:18:07;9.48;;;3.50;;
83807;SDS011;73824;40.292;17.998;2024-01-30T10:20:35;8.57;;;3.65;;
83807;SDS011;73824;40.292;17.998;2024-01-30T10:23:01;9.03;;;2.87;;
83807;SDS011;73824;40.292;17.998;2024-01-30T10:25:27;10.57;;;2.80;;
83807;SDS011;73824;40.292;17.998;2024-01-30T10:27:53;7.40;;;2.20;;
83807;SDS011;73824;40.292;17.998;2024-01-30T10:30:22;7.82;;;2.70;;
83807;SDS011;73824;40.292;17.998;2024-01-30T10:32:48;8.98;;;2.65;;
83807;SDS011;73824;40.292;17.998;2024-01-30T10:35:14;9.57;;;3.33;;
83807;SDS011;73824;40.292;17.998;2024-01-30T10:37:42;8.75;;;3.40;;
83807;SDS011;73824;40.292;17.998;2024-01-30T10:40:08;10.73;;;3.80;;
83807;SDS011;73824;40.292;17.998;2024-01-30T10:42:37;7.55;;;2.58;;
83807;SDS011;73824;40.292;17.998;2024-01-30T10:45:08;8.02;;;2.28;;
83807;SDS011;73824;40.292;17.998;2024-01-30T10:47:35;10.38;;;3.42;;
83807;SDS011;73824;40.292;17.998;2024-01-30T10:50:04;9.15;;;3.30;;
83807;SDS011;73824;40.292;17.998;2024-01-30T10:52:30;8.20;;;2.60;;
83807;SDS011;73824;40.292;17.998;2024-01-30T10:54:57;11.82;;;4.85;;
83807;SDS011;73824;40.292;17.998;2024-01-30T10:57:24;9.88;;;4.00;;
83807;SDS011;73824;40.292;17.998;2024-01-30T10:59:59;9.02;;;3.90;;
83807;SDS011;73824;40.292;17.998;2024-01-30T11:02:26;7.05;;;2.45;;
83807;SDS011;73824;40.292;17.998;2024-01-30T11:04:59;7.20;;;2.80;;
83807;SDS011;73824;40.292;17.998;2024-01-30T11:07:25;8.15;;;2.38;;
83807;SDS011;73824;40.292;17.998;2024-01-30T11:12:24;9.80;;;3.80;;
83807;SDS011;73824;40.292;17.998;2024-01-30T11:20:15;6.95;;;2.90;;
83807;SDS011;73824;40.292;17.998;2024-01-30T11:22:42;10.15;;;4.38;;
83807;SDS011;73824;40.292;17.998;2024-01-30T11:25:12;9.25;;;3.25;;
83807;SDS011;73824;40.292;17.998;2024-01-30T11:27:39;8.68;;;3.17;;
83807;SDS011;73824;40.292;17.998;2024-01-30T11:30:06;6.67;;;2.33;;
83807;SDS011;73824;40.292;17.998;2024-01-30T11:32:33;11.60;;;4.15;;
83807;SDS011;73824;40.292;17.998;2024-01-30T11:34:58;10.25;;;2.55;;
83807;SDS011;73824;40.292;17.998;2024-01-30T11:37:25;16.23;;;6.60;;
83807;SDS011;73824;40.292;17.998;2024-01-30T11:39:51;12.88;;;4.47;;
83807;SDS011;73824;40.292;17.998;2024-01-30T11:42:19;13.35;;;5.85;;
83807;SDS011;73824;40.292;17.998;2024-01-30T11:44:48;16.43;;;6.07;;
83807;SDS011;73824;40.292;17.998;2024-01-30T11:47:14;13.63;;;4.85;;
83807;SDS011;73824;40.292;17.998;2024-01-30T11:49:39;9.32;;;3.00;;
83807;SDS011;73824;40.292;17.998;2024-01-30T11:52:05;10.00;;;2.72;;
83807;SDS011;73824;40.292;17.998;2024-01-30T11:54:30;14.45;;;5.45;;
83807;SDS011;73824;40.292;17.998;2024-01-30T11:56:56;11.37;;;3.67;;
83807;SDS011;73824;40.292;17.998;2024-01-30T11:59:22;9.25;;;3.35;;
83807;SDS011;73824;40.292;17.998;2024-01-30T12:01:47;9.90;;;4.23;;
83807;SDS011;73824;40.292;17.998;2024-01-30T12:04:13;8.03;;;2.67;;
83807;SDS011;73824;40.292;17.998;2024-01-30T12:06:40;12.70;;;5.32;;
83807;SDS011;73824;40.292;17.998;2024-01-30T12:09:05;9.70;;;3.33;;
83807;SDS011;73824;40.292;17.998;2024-01-30T12:11:42;12.82;;;5.32;;
83807;SDS011;73824;40.292;17.998;2024-01-30T12:14:11;12.95;;;5.03;;
83807;SDS011;73824;40.292;17.998;2024-01-30T12:16:37;8.27;;;3.38;;
83807;SDS011;73824;40.292;17.998;2024-01-30T12:19:03;9.30;;;3.60;;
83807;SDS011;73824;40.292;17.998;2024-01-30T12:21:29;11.13;;;4.32;;
83807;SDS011;73824;40.292;17.998;2024-01-30T12:23:55;13.80;;;5.68;;
83807;SDS011;73824;40.292;17.998;2024-01-30T12:26:21;12.40;;;4.93;;
83807;SDS011;73824;40.292;17.998;2024-01-30T12:28:56;9.18;;;3.13;;
83807;SDS011;73824;40.292;17.998;2024-01-30T12:31:26;6.72;;;2.55;;
83807;SDS011;73824;40.292;17.998;2024-01-30T12:33:52;7.33;;;2.37;;
83807;SDS011;73824;40.292;17.998;2024-01-30T12:36:18;10.43;;;3.63;;
83807;SDS011;73824;40.292;17.998;2024-01-30T12:38:44;8.40;;;2.90;;
83807;SDS011;73824;40.292;17.998;2024-01-30T12:41:10;10.05;;;3.80;;
83807;SDS011;73824;40.292;17.998;2024-01-30T12:43:35;11.93;;;4.73;;
83807;SDS011;73824;40.292;17.998;2024-01-30T12:46:02;8.45;;;2.78;;
83807;SDS011;73824;40.292;17.998;2024-01-30T12:48:28;9.85;;;3.28;;
83807;SDS011;73824;40.292;17.998;2024-01-30T12:50:54;8.97;;;3.90;;
83807;SDS011;73824;40.292;17.998;2024-01-30T12:53:21;9.65;;;2.80;;
83807;SDS011;73824;40.292;17.998;2024-01-30T12:55:47;7.72;;;2.42;;
83807;SDS011;73824;40.292;17.998;2024-01-30T12:58:12;9.77;;;3.60;;
83807;SDS011;73824;40.292;17.998;2024-01-30T13:00:38;10.63;;;3.83;;
83807;SDS011;73824;40.292;17.998;2024-01-30T13:03:03;10.05;;;3.40;;
83807;SDS011;73824;40.292;17.998;2024-01-30T13:05:29;9.07;;;3.30;;
83807;SDS011;73824;40.292;17.998;2024-01-30T13:07:55;8.23;;;2.85;;
83807;SDS011;73824;40.292;17.998;2024-01-30T13:10:22;14.07;;;4.83;;
83807;SDS011;73824;40.292;17.998;2024-01-30T13:12:48;10.35;;;4.78;;
83807;SDS011;73824;40.292;17.998;2024-01-30T13:15:13;14.57;;;4.57;;
83807;SDS011;73824;40.292;17.998;2024-01-30T13:17:39;9.27;;;3.17;;
83807;SDS011;73824;40.292;17.998;2024-01-30T13:20:05;11.93;;;4.47;;
83807;SDS011;73824;40.292;17.998;2024-01-30T13:22:33;13.52;;;4.68;;
83807;SDS011;73824;40.292;17.998;2024-01-30T13:24:58;7.63;;;2.67;;
83807;SDS011;73824;40.292;17.998;2024-01-30T13:27:24;10.98;;;3.60;;
83807;SDS011;73824;40.292;17.998;2024-01-30T13:29:49;10.93;;;4.50;;
83807;SDS011;73824;40.292;17.998;2024-01-30T13:32:15;8.53;;;3.40;;
83807;SDS011;73824;40.292;17.998;2024-01-30T13:34:41;6.63;;;2.40;;
83807;SDS011;73824;40.292;17.998;2024-01-30T13:37:07;7.88;;;2.72;;
83807;SDS011;73824;40.292;17.998;2024-01-30T13:39:32;8.80;;;2.10;;
83807;SDS011;73824;40.292;17.998;2024-01-30T13:41:58;7.50;;;2.90;;
83807;SDS011;73824;40.292;17.998;2024-01-30T13:44:23;8.27;;;2.35;;
83807;SDS011;73824;40.292;17.998;2024-01-30T13:46:49;10.87;;;4.63;;
83807;SDS011;73824;40.292;17.998;2024-01-30T13:49:15;20.50;;;8.07;;
83807;SDS011;73824;40.292;17.998;2024-01-30T13:51:40;8.77;;;2.60;;
83807;SDS011;73824;40.292;17.998;2024-01-30T13:54:06;9.77;;;3.20;;
83807;SDS011;73824;40.292;17.998;2024-01-30T13:56:31;15.48;;;6.43;;
83807;SDS011;73824;40.292;17.998;2024-01-30T13:58:57;14.07;;;6.83;;
83807;SDS011;73824;40.292;17.998;2024-01-30T14:01:22;13.50;;;5.90;;
83807;SDS011;73824;40.292;17.998;2024-01-30T14:03:49;8.35;;;2.70;;
83807;SDS011;73824;40.292;17.998;2024-01-30T14:06:17;15.60;;;5.15;;
83807;SDS011;73824;40.292;17.998;2024-01-30T14:08:43;12.07;;;4.40;;
83807;SDS011;73824;40.292;17.998;2024-01-30T14:11:08;14.52;;;5.18;;
83807;SDS011;73824;40.292;17.998;2024-01-30T14:13:34;17.37;;;6.07;;
83807;SDS011;73824;40.292;17.998;2024-01-30T14:16:00;17.38;;;6.13;;
83807;SDS011;73824;40.292;17.998;2024-01-30T14:18:26;10.13;;;2.87;;
83807;SDS011;73824;40.292;17.998;2024-01-30T14:20:51;17.10;;;5.22;;
83807;SDS011;73824;40.292;17.998;2024-01-30T14:23:17;10.70;;;4.17;;
83807;SDS011;73824;40.292;17.998;2024-01-30T14:25:43;9.18;;;3.30;;
83807;SDS011;73824;40.292;17.998;2024-01-30T14:28:09;10.93;;;2.30;;